Impacts METAR Board
IDs:

KFLL - Ft Lauderdale-Hollyw, FL, US

Updated at: 0200 UTC 23 Oct 2018
Potential Impact None Slight Moderate High
Time 22/14Z 22/15Z 22/16Z 22/17Z 22/18Z 22/19Z 22/20Z 22/21Z 22/22Z 22/23Z 23/00Z 23/01Z 23/02Z
Temp81 81 81 77 79 80 80 80 79 78 78 77 77
Dewpt71 72 71 74 72 71 70 71 70 69 69 69 69
Altim30.10 30.11 30.10 30.09 30.08 30.06 30.05 30.05 30.06 30.07 30.08 30.08 30.09
VIS10 10 10 10 10 10 10 10 10 10 10 10 10
CIG30 27 27 28 28 46 65 80 35 33 -- -- --
CoverBKNBKNBKNOVCOVCBKNBKNBKNBKNBKNSCTSCTFEW
FltCatMVFRMVFRMVFRMVFRMVFRVFRVFRVFRVFRVFRVFRVFRVFR
WX-------RA------------------
WDir707080100706060507060606060
WSpd12 13 12 13 12 15 15 13 13 8 9 11 7
WGst-- 20 -- -- -- -- 19 -- -- -- -- -- --
Raw hourly METARs
KFLL 221353Z 07012KT 10SM BKN030 BKN055 BKN250 27/22 A3010 RMK AO2 SLP192 T02720217
KFLL 221453Z 07013G20KT 10SM BKN027 BKN055 BKN250 27/22 A3011 RMK AO2 SLP194 T02720222 51019
KFLL 221553Z 08012KT 10SM BKN027 27/22 A3010 RMK AO2 SLP193 T02720217
KFLL 221704Z 10013KT 10SM -RA BKN028 OVC045 25/23 A3009 RMK AO2 WSHFT 1644 P0000 T02500233
KFLL 221753Z 07012KT 10SM BKN028 OVC045 26/22 A3008 RMK AO2 WSHFT 1644 RAE07 SLP184 P0000 60006 T02610222 10289 20239 58010
KFLL 221853Z 06015KT 10SM SCT028 BKN046 BKN065 BKN150 27/22 A3006 RMK AO2 SLP178 T02670217
KFLL 221953Z 06015G19KT 10SM SCT032 BKN065 27/21 A3005 RMK AO2 SLP175 T02670211
KFLL 222053Z 05013KT 10SM SCT030 SCT050 BKN080 27/22 A3005 RMK AO2 SLP177 T02670217 55008
KFLL 222153Z 07013KT 10SM SCT030 BKN035 BKN250 26/21 A3006 RMK AO2 SLP179 T02610211
KFLL 222253Z 06008KT 10SM FEW028 BKN033 BKN080 BKN250 26/21 A3007 RMK AO2 SLP181 T02560206
KFLL 222353Z 06009KT 10SM SCT037 SCT250 26/21 A3008 RMK AO2 SLP184 T02560206 10278 20250 52007
KFLL 230053Z 06011KT 10SM SCT027 SCT250 25/21 A3008 RMK AO2 SLP185 T02500206
KFLL 230153Z 06007KT 10SM FEW035 25/21 A3009 RMK AO2 SLP187 T02500206



Page loaded:  02:40 UTC  |   07:40 PM Pacific  |   08:40 PM Mountain  |   09:40 PM Central  |   10:40 PM Eastern

 

ADVISORIES

FORECASTS

FORECASTS

OBSERVATIONS

USER TOOLS

ABOUT US